Rachel Carson — WDF9370 — position and weather

sailwx.info

Track history (hours):
 
Tides and Currents Weather Stations Pressure Air Temp Water Temp Dewpoint Dewpoint Depression Visibility Wind Speed Wind Dir Waves Ship Positions

Oceanographic research ship Rachel Carson (USA)

Owner: Monterey Bay Aquarium Research Institute, Moss Landing, CA. More information available from US FCC via Universal Licensing System and Coast Guard Vessel Documentation Center.

Last reported at 2018-Nov-06 22:00 UTC. Time now 2018-Dec-13 00:10 UTC.
Position N 36°45' W 122°01'.
Warning: this ship's position is 36 days out of date.

Length 42 m; draft 3 m.

Type: Cargo ship. MMSI: 338415000.

Date/timePositionNaut miles runAvg speedWind from/ knotsBaromVisibWave heightAir tempDewpointWater temp
2018-Nov-06 22:00N 36°45' W 122°01'510.3
2018-Nov-06 21:30N 36°44' W 122°07'510.3
2018-Nov-06 21:03N 36°43' W 122°13'1 9.7
2018-Nov-06 21:00N 36°43' W 122°14'5 9.9
2018-Nov-06 20:30N 36°42' W 122°20'2 5.5
2018-Nov-06 20:03N 36°42' W 122°23'0 0.1
2018-Nov-06 20:00N 36°42' W 122°23'0 0.5
2018-Nov-06 19:30N 36°42' W 122°23'4 9.5
2018-Nov-06 19:03N 36°43' W 122°17'0 9.4
2018-Nov-06 19:00N 36°43' W 122°17'6 9.4
2018-Nov-06 18:23N 36°44' W 122°10'3 9.6
2018-Nov-06 18:03N 36°44' W 122°06'0 9.1
2018-Nov-06 18:00N 36°45' W 122°05'3 6.4
2018-Nov-06 17:30N 36°45' W 122°01'0 0.2
2018-Nov-06 17:03N 36°45' W 122°01'0 2.1
2018-Nov-06 17:00N 36°45' W 122°01'  
2018-Nov-02 19:38N 36°46' W 122°01'0 0.2
2018-Nov-02 19:30N 36°46' W 122°01'0 0.1
2018-Nov-02 18:24N 36°46' W 122°01'0 0.1
2018-Nov-02 18:00N 36°46' W 122°01'0 0.1
2018-Nov-02 17:30N 36°46' W 122°01'0 0.1
2018-Nov-02 16:01N 36°46' W 122°00'0 0.5
2018-Nov-02 15:55N 36°46' W 122°00'1 0.0
2018-Nov-01 21:54N 36°45' W 122°01'2 4.6
2018-Nov-01 21:27N 36°45' W 122°03'0 0.3
2018-Nov-01 21:03N 36°45' W 122°03'0 0.9
2018-Nov-01 21:00N 36°45' W 122°03'0 0.4
2018-Nov-01 20:29N 36°45' W 122°03'0 0.3
2018-Nov-01 20:00N 36°45' W 122°03'0 0.2
2018-Nov-01 19:26N 36°45' W 122°03'0 0.1
2018-Nov-01 19:03N 36°45' W 122°03'0 0.0
2018-Nov-01 19:00N 36°45' W 122°03'0 0.2
2018-Nov-01 18:29N 36°45' W 122°03'0 0.2
2018-Nov-01 18:00N 36°45' W 122°03'0 0.1
2018-Nov-01 17:30N 36°45' W 122°03'0 0.0
2018-Nov-01 16:55N 36°45' W 122°03'0 0.0
2018-Nov-01 16:29N 36°45' W 122°03'0 0.0
2018-Nov-01 16:03N 36°45' W 122°03'0 1.0
2018-Nov-01 16:00N 36°45' W 122°03'2 0.1
2018-Oct-31 22:01N 36°45' W 122°00'010.8
2018-Oct-31 22:00N 36°44' W 122°00'510.4
2018-Oct-31 21:30N 36°43' W 122°07'510.5
2018-Oct-31 21:03N 36°42' W 122°12'010.7
2018-Oct-31 21:00N 36°42' W 122°13'4 9.0
2018-Oct-31 20:30N 36°41' W 122°18'0 0.4
2018-Oct-31 20:03N 36°41' W 122°18'0 1.0
2018-Oct-31 20:00N 36°41' W 122°18'0 0.4
2018-Oct-31 19:30N 36°41' W 122°18'0 0.6
2018-Oct-31 19:03N 36°41' W 122°18'0 1.0
2018-Oct-31 19:00N 36°41' W 122°18'0 0.1
2018-Oct-31 18:30N 36°41' W 122°18'0 0.0
2018-Oct-31 18:03N 36°41' W 122°18'0 0.1
2018-Oct-31 18:00N 36°41' W 122°18'0 0.1
2018-Oct-31 17:30N 36°41' W 122°18'0 0.9
2018-Oct-31 17:04N 36°41' W 122°18'0 0.8
2018-Oct-31 17:01N 36°41' W 122°18'4 8.6
2018-Oct-31 16:30N 36°43' W 122°13'4 8.9
2018-Oct-31 16:03N 36°44' W 122°08'1 9.7
2018-Oct-31 16:00N 36°44' W 122°08'5 9.4
2018-Oct-31 15:30N 36°46' W 122°02'  
Track history (hours):
 
Tides and Currents Weather Stations Pressure Air Temp Water Temp Dewpoint Dewpoint Depression Visibility Wind Speed Wind Dir Waves Ship Positions

Oceanographic research ship Rachel Carson (USA)

Owner: Monterey Bay Aquarium Research Institute, Moss Landing, CA. More information available from US FCC via Universal Licensing System and Coast Guard Vessel Documentation Center.

Last reported at 2018-Nov-06 22:00 UTC. Time now 2018-Dec-13 00:10 UTC.
Position N 36°45' W 122°01'.
Warning: this ship's position is 36 days out of date.

Length 42 m; draft 3 m.

Type: Cargo ship. MMSI: 338415000.

Date/timePositionNaut miles runAvg speedWind from/ knotsBaromVisibWave heightAir tempDewpointWater temp
2018-Nov-06 22:00N 36°45' W 122°01'510.3
2018-Nov-06 21:30N 36°44' W 122°07'510.3
2018-Nov-06 21:03N 36°43' W 122°13'1 9.7
2018-Nov-06 21:00N 36°43' W 122°14'5 9.9
2018-Nov-06 20:30N 36°42' W 122°20'2 5.5
2018-Nov-06 20:03N 36°42' W 122°23'0 0.1
2018-Nov-06 20:00N 36°42' W 122°23'0 0.5
2018-Nov-06 19:30N 36°42' W 122°23'4 9.5
2018-Nov-06 19:03N 36°43' W 122°17'0 9.4
2018-Nov-06 19:00N 36°43' W 122°17'6 9.4
2018-Nov-06 18:23N 36°44' W 122°10'3 9.6
2018-Nov-06 18:03N 36°44' W 122°06'0 9.1
2018-Nov-06 18:00N 36°45' W 122°05'3 6.4
2018-Nov-06 17:30N 36°45' W 122°01'0 0.2
2018-Nov-06 17:03N 36°45' W 122°01'0 2.1
2018-Nov-06 17:00N 36°45' W 122°01'  
2018-Nov-02 19:38N 36°46' W 122°01'0 0.2
2018-Nov-02 19:30N 36°46' W 122°01'0 0.1
2018-Nov-02 18:24N 36°46' W 122°01'0 0.1
2018-Nov-02 18:00N 36°46' W 122°01'0 0.1
2018-Nov-02 17:30N 36°46' W 122°01'0 0.1
2018-Nov-02 16:01N 36°46' W 122°00'0 0.5
2018-Nov-02 15:55N 36°46' W 122°00'1 0.0
2018-Nov-01 21:54N 36°45' W 122°01'2 4.6
2018-Nov-01 21:27N 36°45' W 122°03'0 0.3
2018-Nov-01 21:03N 36°45' W 122°03'0 0.9
2018-Nov-01 21:00N 36°45' W 122°03'0 0.4
2018-Nov-01 20:29N 36°45' W 122°03'0 0.3
2018-Nov-01 20:00N 36°45' W 122°03'0 0.2
2018-Nov-01 19:26N 36°45' W 122°03'0 0.1
2018-Nov-01 19:03N 36°45' W 122°03'0 0.0
2018-Nov-01 19:00N 36°45' W 122°03'0 0.2
2018-Nov-01 18:29N 36°45' W 122°03'0 0.2
2018-Nov-01 18:00N 36°45' W 122°03'0 0.1
2018-Nov-01 17:30N 36°45' W 122°03'0 0.0
2018-Nov-01 16:55N 36°45' W 122°03'0 0.0
2018-Nov-01 16:29N 36°45' W 122°03'0 0.0
2018-Nov-01 16:03N 36°45' W 122°03'0 1.0
2018-Nov-01 16:00N 36°45' W 122°03'2 0.1
2018-Oct-31 22:01N 36°45' W 122°00'010.8
2018-Oct-31 22:00N 36°44' W 122°00'510.4
2018-Oct-31 21:30N 36°43' W 122°07'510.5
2018-Oct-31 21:03N 36°42' W 122°12'010.7
2018-Oct-31 21:00N 36°42' W 122°13'4 9.0
2018-Oct-31 20:30N 36°41' W 122°18'0 0.4
2018-Oct-31 20:03N 36°41' W 122°18'0 1.0
2018-Oct-31 20:00N 36°41' W 122°18'0 0.4
2018-Oct-31 19:30N 36°41' W 122°18'0 0.6
2018-Oct-31 19:03N 36°41' W 122°18'0 1.0
2018-Oct-31 19:00N 36°41' W 122°18'0 0.1
2018-Oct-31 18:30N 36°41' W 122°18'0 0.0
2018-Oct-31 18:03N 36°41' W 122°18'0 0.1
2018-Oct-31 18:00N 36°41' W 122°18'0 0.1
2018-Oct-31 17:30N 36°41' W 122°18'0 0.9
2018-Oct-31 17:04N 36°41' W 122°18'0 0.8
2018-Oct-31 17:01N 36°41' W 122°18'4 8.6
2018-Oct-31 16:30N 36°43' W 122°13'4 8.9
2018-Oct-31 16:03N 36°44' W 122°08'1 9.7
2018-Oct-31 16:00N 36°44' W 122°08'5 9.4
2018-Oct-31 15:30N 36°46' W 122°02'  

Dump ship's entire track history